Time;durP1;ratioP1;P1;durP2;ratioP2;P2;SDS_P1;SDS_P2;PMS_P1;PMS_P2;Temp;Humidity;BMP_temperature;BMP_pressure;BME280_temperature;BME280_humidity;BME280_pressure;Samples;Min_cycle;Max_cycle;Signal;HPM_P1;HPM_P2
2022/02/18 00:00:06;;;;;;;15.48;2.35;;;6.90;99.90;;;;;;6725368;77;20604;-76
2022/02/18 00:10:08;;;;;;;24.02;2.50;;;7.10;99.90;;;;;;6712038;88;20237;-77
2022/02/18 00:20:08;;;;;;;17.50;2.25;;;7.20;99.90;;;;;;6698914;88;20209;-76
2022/02/18 00:30:10;;;;;;;10.32;1.67;;;7.40;99.90;;;;;;6695145;88;20239;-76
2022/02/18 00:40:11;;;;;;;17.05;2.60;;;7.50;99.90;;;;;;6696442;88;20258;-77
2022/02/18 00:50:11;;;;;;;14.45;2.20;;;7.60;99.90;;;;;;6697861;88;20203;-77
2022/02/18 01:00:15;;;;;;;15.32;2.08;;;7.60;99.90;;;;;;6701565;88;20235;-76
2022/02/18 01:10:15;;;;;;;13.18;1.85;;;7.70;99.90;;;;;;6703555;88;20187;-75
2022/02/18 01:20:16;;;;;;;14.45;2.33;;;7.80;99.90;;;;;;6701898;88;20708;-77
2022/02/18 01:30:17;;;;;;;12.18;1.90;;;7.80;99.90;;;;;;6704102;88;20190;-76
2022/02/18 01:40:18;;;;;;;13.93;2.10;;;7.80;99.90;;;;;;6703294;88;20783;-78
2022/02/18 01:50:19;;;;;;;18.83;2.67;;;7.80;99.90;;;;;;6707394;88;20210;-77
2022/02/18 02:00:27;;;;;;;10.13;1.90;;;7.80;99.90;;;;;;6701455;88;20563;-77
2022/02/18 02:10:28;;;;;;;10.73;2.12;;;7.90;99.90;;;;;;6697749;88;20206;-76
2022/02/18 02:20:29;;;;;;;11.60;1.67;;;7.90;99.90;;;;;;6698815;88;20204;-76
2022/02/18 02:30:30;;;;;;;10.73;1.95;;;8.10;99.90;;;;;;6698339;88;20203;-78
2022/02/18 02:40:31;;;;;;;13.13;2.30;;;7.50;99.90;;;;;;6702574;88;20257;-77
2022/02/18 02:50:32;;;;;;;19.87;2.17;;;7.20;99.90;;;;;;6703367;88;20204;-77
2022/02/18 03:00:32;;;;;;;18.70;4.07;;;7.30;99.90;;;;;;6701582;88;20669;-75
2022/02/18 03:10:33;;;;;;;8.77;1.80;;;7.60;99.90;;;;;;6696524;88;20226;-76
2022/02/18 03:20:33;;;;;;;12.30;1.87;;;7.50;99.90;;;;;;6702813;88;20721;-77
2022/02/18 03:30:34;;;;;;;11.12;1.77;;;7.20;99.90;;;;;;6703420;88;20198;-77
2022/02/18 03:40:35;;;;;;;12.27;2.00;;;6.90;99.90;;;;;;6703829;88;20264;-76
2022/02/18 03:50:36;;;;;;;12.32;2.37;;;6.90;99.90;;;;;;6697245;88;20619;-76
2022/02/18 04:00:36;;;;;;;12.17;2.30;;;6.80;99.90;;;;;;6699691;88;20199;-77
2022/02/18 04:10:37;;;;;;;10.77;1.50;;;6.90;99.90;;;;;;6706112;88;20657;-76
2022/02/18 04:20:38;;;;;;;8.80;1.83;;;6.90;99.90;;;;;;6703541;88;20531;-77
2022/02/18 04:30:38;;;;;;;7.15;1.50;;;6.90;99.90;;;;;;6699887;88;20504;-77
2022/02/18 04:40:39;;;;;;;12.18;1.65;;;7.00;99.90;;;;;;6699887;88;20367;-77
2022/02/18 04:50:39;;;;;;;11.82;2.03;;;7.20;99.90;;;;;;6703650;88;20190;-77
2022/02/18 05:00:40;;;;;;;12.60;1.90;;;7.40;99.90;;;;;;6702920;88;20199;-76
2022/02/18 05:10:40;;;;;;;11.63;1.93;;;7.60;99.90;;;;;;6698639;88;20176;-77
2022/02/18 05:20:41;;;;;;;11.63;1.85;;;7.60;99.90;;;;;;6702452;88;20564;-77
2022/02/18 05:30:43;;;;;;;11.07;1.60;;;7.60;99.90;;;;;;6702604;88;20240;-77
2022/02/18 05:40:43;;;;;;;8.07;1.48;;;7.60;99.90;;;;;;6695897;88;20191;-77
2022/02/18 05:50:44;;;;;;;11.63;1.90;;;7.40;99.90;;;;;;6697589;88;20646;-77
2022/02/18 06:00:44;;;;;;;16.58;2.20;;;7.10;99.90;;;;;;6715065;77;20230;-75
2022/02/18 06:10:45;;;;;;;11.98;2.10;;;6.80;99.90;;;;;;6689630;88;20230;-75
2022/02/18 06:20:45;;;;;;;13.55;2.05;;;6.60;99.90;;;;;;6688237;88;20699;-75
2022/02/18 06:30:46;;;;;;;16.15;3.42;;;6.60;99.90;;;;;;6691461;88;20971;-75
2022/02/18 06:40:47;;;;;;;17.52;2.70;;;6.50;99.90;;;;;;6684049;88;20240;-75
2022/02/18 06:50:47;;;;;;;25.92;3.72;;;6.60;99.90;;;;;;6690717;88;20171;-75
2022/02/18 07:00:51;;;;;;;23.58;2.85;;;7.00;99.90;;;;;;6691931;88;20229;-75
2022/02/18 07:10:51;;;;;;;19.45;2.67;;;7.20;99.90;;;;;;6699672;88;20171;-75
2022/02/18 07:20:52;;;;;;;23.20;2.95;;;7.40;99.90;;;;;;6703176;88;20237;-74
2022/02/18 07:30:53;;;;;;;18.73;2.83;;;7.60;99.90;;;;;;6692214;88;20229;-75
2022/02/18 07:40:53;;;;;;;21.15;2.85;;;7.90;99.90;;;;;;6690364;88;20248;-76
2022/02/18 07:50:54;;;;;;;13.93;2.40;;;8.00;99.90;;;;;;6692042;88;20199;-76
2022/02/18 08:00:55;;;;;;;21.48;3.20;;;8.10;99.90;;;;;;6693626;88;20215;-76
2022/02/18 08:10:55;;;;;;;11.38;2.30;;;8.30;99.90;;;;;;6685063;88;20208;-76
2022/02/18 08:20:56;;;;;;;7.18;1.50;;;8.60;99.90;;;;;;6698808;88;20193;-76
2022/02/18 08:30:56;;;;;;;8.35;1.58;;;9.00;99.90;;;;;;6688796;88;20190;-76
2022/02/18 08:40:57;;;;;;;6.20;1.35;;;9.30;99.90;;;;;;6685570;88;20318;-76
2022/02/18 08:50:57;;;;;;;6.65;1.10;;;9.60;99.90;;;;;;6684689;88;20476;-76
2022/02/18 09:00:58;;;;;;;5.62;0.70;;;9.70;99.90;;;;;;6691090;88;20367;-76
2022/02/18 09:10:59;;;;;;;2.20;0.60;;;10.20;99.90;;;;;;6684671;89;20191;-76
2022/02/18 09:20:59;;;;;;;1.10;0.37;;;10.40;99.90;;;;;;6684183;88;20366;-75
2022/02/18 09:31:00;;;;;;;1.92;0.50;;;10.70;99.90;;;;;;6684725;88;20353;-75
2022/02/18 09:41:01;;;;;;;1.05;0.20;;;10.70;99.90;;;;;;6683797;88;20198;-75
2022/02/18 09:51:02;;;;;;;1.30;0.30;;;11.00;99.90;;;;;;6684580;88;20176;-76
2022/02/18 10:01:03;;;;;;;0.93;0.20;;;11.30;99.90;;;;;;6680311;88;20198;-75
2022/02/18 10:11:07;;;;;;;0.20;0.10;;;11.60;99.90;;;;;;6689197;88;20213;-75
2022/02/18 10:21:13;;;;;;;0.10;0.10;;;11.90;99.90;;;;;;6680956;88;20515;-75
2022/02/18 10:31:17;;;;;;;0.30;0.10;;;12.20;99.90;;;;;;6685128;88;20188;-75
2022/02/18 10:41:24;;;;;;;0.40;0.20;;;12.60;99.90;;;;;;6680509;88;20734;-74
2022/02/18 10:51:30;;;;;;;0.43;0.10;;;12.90;99.90;;;;;;6679589;88;20179;-74
2022/02/18 11:01:31;;;;;;;0.90;0.10;;;13.40;99.90;;;;;;6679886;88;20212;-75
2022/02/18 11:11:36;;;;;;;0.50;0.10;;;13.70;99.90;;;;;;6679566;88;20622;-74
2022/02/18 11:21:37;;;;;;;0.73;0.20;;;13.90;99.90;;;;;;6678867;88;20209;-74
2022/02/18 11:31:41;;;;;;;1.20;0.65;;;14.20;99.90;;;;;;6679205;88;20250;-75
2022/02/18 11:42:00;;;;;;;0.50;0.20;;;14.30;99.90;;;;;;6678855;88;20257;-74
2022/02/18 11:52:08;;;;;;;0.40;0.20;;;14.20;99.90;;;;;;6682749;88;20381;-74
2022/02/18 12:02:09;;;;;;;0.52;0.20;;;14.10;99.90;;;;;;6687119;88;20199;-75
2022/02/18 12:12:23;;;;;;;0.52;0.20;;;14.10;99.90;;;;;;6681893;88;20210;-75
2022/02/18 12:22:35;;;;;;;0.30;0.17;;;14.10;99.90;;;;;;6685767;88;20691;-75
2022/02/18 12:32:35;;;;;;;0.40;0.10;;;14.20;99.90;;;;;;6685853;88;20208;-75
2022/02/18 12:42:36;;;;;;;0.90;0.20;;;14.20;99.90;;;;;;6685595;88;20273;-74
2022/02/18 12:52:39;;;;;;;1.40;0.30;;;14.20;99.90;;;;;;6691072;88;20195;-74
2022/02/18 13:02:47;;;;;;;0.60;0.20;;;14.10;99.90;;;;;;6689990;88;20227;-75
2022/02/18 13:12:53;;;;;;;0.40;0.20;;;14.30;99.90;;;;;;6690596;88;20186;-75
2022/02/18 13:22:54;;;;;;;;;;;14.20;99.90;;;;;;6686130;88;20187;-75
2022/02/18 13:33:11;;;;;;;0.28;0.13;;;14.30;99.90;;;;;;6687951;88;20554;-75
2022/02/18 13:43:11;;;;;;;0.30;0.10;;;14.30;99.90;;;;;;6690328;88;20290;-75
2022/02/18 13:53:13;;;;;;;0.47;0.17;;;14.40;99.90;;;;;;6701643;88;20202;-75
2022/02/18 14:03:15;;;;;;;0.32;0.15;;;14.40;99.90;;;;;;6687940;88;20739;-74
2022/02/18 14:13:24;;;;;;;0.80;0.30;;;14.40;99.90;;;;;;6689390;88;20203;-75
2022/02/18 14:23:32;;;;;;;0.60;0.20;;;14.80;99.90;;;;;;6693454;88;20779;-76
2022/02/18 14:33:33;;;;;;;0.60;0.28;;;14.70;99.90;;;;;;6690551;88;20326;-75
2022/02/18 14:43:55;;;;;;;0.93;0.20;;;14.40;99.90;;;;;;6686884;88;20761;-76
2022/02/18 14:53:56;;;;;;;0.50;0.20;;;14.20;99.90;;;;;;6689776;88;20203;-75
2022/02/18 15:03:57;;;;;;;1.80;0.32;;;14.00;99.90;;;;;;6695197;88;20216;-76
2022/02/18 15:13:57;;;;;;;0.50;0.20;;;12.00;99.90;;;;;;6688934;88;20742;-75
2022/02/18 15:23:58;;;;;;;0.55;0.22;;;11.00;99.90;;;;;;6688433;88;20257;-75
2022/02/18 15:44:11;;;;;;;2.20;0.35;;;11.40;99.90;;;;;;6689357;88;20188;-74
2022/02/18 15:54:11;;;;;;;1.90;0.30;;;11.70;99.90;;;;;;6687992;88;20661;-76
2022/02/18 16:04:23;;;;;;;1.40;0.30;;;11.60;99.50;;;;;;6691626;88;20198;-75
2022/02/18 16:14:25;;;;;;;1.67;0.45;;;11.50;99.00;;;;;;6688016;88;20773;-76
2022/02/18 16:24:27;;;;;;;4.62;0.85;;;11.50;99.40;;;;;;6687002;88;20195;-74
2022/02/18 16:34:28;;;;;;;3.03;1.02;;;11.30;99.90;;;;;;6684454;88;20182;-75
2022/02/18 16:44:33;;;;;;;6.03;0.67;;;11.00;99.90;;;;;;6688344;88;20632;-74
2022/02/18 16:54:39;;;;;;;4.63;0.67;;;10.90;99.90;;;;;;6698059;88;20497;-75
2022/02/18 17:04:39;;;;;;;3.23;0.50;;;10.60;99.90;;;;;;6688171;88;20191;-74
2022/02/18 17:14:40;;;;;;;5.47;0.73;;;10.70;99.90;;;;;;6685369;88;20215;-74
2022/02/18 17:24:40;;;;;;;5.15;0.80;;;10.60;99.90;;;;;;6687951;88;20832;-75
2022/02/18 17:34:41;;;;;;;2.90;0.70;;;10.60;99.50;;;;;;6686473;88;20330;-74
2022/02/18 17:44:41;;;;;;;5.47;1.10;;;10.60;97.70;;;;;;6679978;88;20242;-73
2022/02/18 17:54:42;;;;;;;6.05;0.80;;;10.50;96.80;;;;;;6680165;88;20308;-75
2022/02/18 18:04:45;;;;;;;3.93;1.00;;;10.40;96.90;;;;;;6677020;88;20195;-73
2022/02/18 18:14:47;;;;;;;6.28;1.00;;;10.40;96.20;;;;;;6681096;88;20204;-73
2022/02/18 18:24:47;;;;;;;5.90;1.05;;;10.50;94.60;;;;;;6681954;88;20233;-74
2022/02/18 18:34:48;;;;;;;7.37;1.10;;;10.30;95.60;;;;;;6681302;88;20233;-73
2022/02/18 18:44:49;;;;;;;8.10;1.17;;;10.20;95.20;;;;;;6694900;88;20187;-74
2022/02/18 18:54:51;;;;;;;7.10;1.30;;;10.00;94.30;;;;;;6682672;88;20981;-76
2022/02/18 19:04:53;;;;;;;6.35;1.55;;;9.90;95.10;;;;;;6681682;88;20250;-76
2022/02/18 19:14:54;;;;;;;8.63;1.10;;;9.70;94.10;;;;;;6684122;88;20243;-75
2022/02/18 19:24:55;;;;;;;9.90;1.30;;;9.50;94.70;;;;;;6682247;88;20386;-75
2022/02/18 19:34:55;;;;;;;7.15;1.40;;;9.40;95.40;;;;;;6693472;88;20787;-75
2022/02/18 19:44:56;;;;;;;9.13;1.95;;;9.20;95.70;;;;;;6698789;88;20222;-75
2022/02/18 19:54:57;;;;;;;12.18;1.87;;;9.10;95.70;;;;;;6663789;88;20221;-75
2022/02/18 20:04:58;;;;;;;6.22;0.90;;;9.10;95.70;;;;;;6672300;88;20249;-76
2022/02/18 20:14:58;;;;;;;8.68;1.62;;;9.00;95.80;;;;;;6681662;88;20229;-76
2022/02/18 20:24:59;;;;;;;7.22;1.33;;;8.90;95.70;;;;;;6680408;88;20221;-75
2022/02/18 20:34:59;;;;;;;10.23;1.58;;;8.80;95.00;;;;;;6679777;88;20222;-76
2022/02/18 20:45:00;;;;;;;9.82;1.23;;;8.70;95.10;;;;;;6688001;88;20598;-75
2022/02/18 20:55:00;;;;;;;8.95;1.60;;;8.50;94.50;;;;;;6680425;88;20809;-74
2022/02/18 21:05:01;;;;;;;7.22;1.00;;;8.30;94.30;;;;;;6683600;88;20232;-75
2022/02/18 21:15:02;;;;;;;8.52;1.27;;;8.20;93.70;;;;;;6686006;88;20224;-75
2022/02/18 21:25:02;;;;;;;7.37;1.33;;;8.10;94.20;;;;;;6677712;88;20207;-75
2022/02/18 21:35:05;;;;;;;14.50;2.15;;;8.00;94.80;;;;;;6679975;88;20190;-74
2022/02/18 21:45:06;;;;;;;10.95;2.03;;;7.90;96.20;;;;;;6676741;88;20171;-75
2022/02/18 21:55:08;;;;;;;8.13;1.20;;;7.90;96.30;;;;;;6685569;88;20217;-73
2022/02/18 22:05:08;;;;;;;6.90;1.23;;;7.90;96.10;;;;;;6692900;88;20310;-75
2022/02/18 22:15:09;;;;;;;9.68;1.20;;;7.80;97.30;;;;;;6679657;88;20314;-75
2022/02/18 22:25:12;;;;;;;11.25;1.48;;;7.50;99.60;;;;;;6686032;88;20182;-73
2022/02/18 22:35:13;;;;;;;5.18;0.88;;;7.40;99.90;;;;;;6684889;88;20175;-74
2022/02/18 22:45:13;;;;;;;7.32;0.70;;;7.40;99.90;;;;;;6689472;88;20223;-74
2022/02/18 22:55:14;;;;;;;2.97;0.50;;;7.10;99.90;;;;;;6687190;88;20215;-73
2022/02/18 23:05:15;;;;;;;5.95;0.70;;;6.60;99.90;;;;;;6691660;88;20229;-76
2022/02/18 23:15:15;;;;;;;2.40;0.60;;;6.40;99.90;;;;;;6683804;88;20205;-74
2022/02/18 23:25:16;;;;;;;7.95;0.95;;;6.50;99.90;;;;;;6690993;88;20308;-73
2022/02/18 23:35:17;;;;;;;5.18;0.75;;;6.60;99.90;;;;;;6686785;88;20265;-73
2022/02/18 23:45:17;;;;;;;8.02;0.90;;;6.60;99.90;;;;;;6690176;88;20356;-74
2022/02/18 23:55:18;;;;;;;7.07;0.82;;;6.60;99.90;;;;;;6690331;88;20578;-74
